Delray Beach, FL

2:31 PM EDT on June 03, 2015 (GMT -0400)
RAWS | | Change Station
CLOSE
Current Station
Personal Weather Station
Location: Delray Beach, FL
Elevation: 17 ft
Nearby Weather Stations

Elev 17 ft 26.50 °N, 80.22 °W | Updated 59 minutes ago

Overcast
Overcast
84 °F
Feels Like 88 °F
N
7
Wind Variable Wind from East
Gusts 11.0 mph

Today
High -- | Low -- °F
--% Chance of Precip.
Yesterday
High -- | Low -- °F
Precip. -- in
6:27 AM 8:10 PM
Full, 99% visible
Pressure 29.95 in
Visibility 10.0 miles
Clouds Few 2700 ft
Scattered Clouds 3600 ft
Scattered Clouds 9000 ft
Mostly Cloudy 25000 ft
Heat Index 88 °F
Dew Point 69 °F
Humidity 61%
Rainfall in
Snow Depth Not available.
UV 8 out of 12
Pollen .50 out of 12
Air Quality Not available.
Flu Activity Sporadic
METAR KPMP 031753Z 07012KT 10SM FEW027 SCT036 SCT090 BKN250 27/21 A2995 RMK AO2 SLP141 T02720211 10283 20233 58004

More Conditions Fewer Conditions

Pressure 29.95 in
Visibility 10.0 miles
Clouds Few 2700 ft
Scattered Clouds 3600 ft
Scattered Clouds 9000 ft
Mostly Cloudy 25000 ft
Heat Index 88 °F
Dew Point 69 °F
Humidity 61%
Rainfall in
Snow Depth Not available.
UV 8 out of 12
Pollen .50 out of 12
Air Quality Not available.
Flu Activity Sporadic
METAR KPMP 031753Z 07012KT 10SM FEW027 SCT036 SCT090 BKN250 27/21 A2995 RMK AO2 SLP141 T02720211 10283 20233 58004

More Conditions Fewer Conditions

Nowcast | as of 1:53 PM EDT on June 3, 2015

Isolated to scattered showers will continue to develop over the eastern areas of South Florida and move slowly north northwest through the afternoon hours. Rainfall amounts from the heaviest showers can be between half an inch to one inch.

×

10-Day Weather Forecast

×

Almanac

Astronomy

Jun. 03, 2015 Rise Set
Actual Time
Civil Twilight
Nautical Twilight
Astronomical Twilight
Moon
Length of Visible Light
Length of Day
Tomorrow will be .
, % of the Moon is Illuminated

Today's Extremes

State Highs State Lows

Community

WunderPhotos

Upload Photos

1,826,270 photos uploaded!

WunderBlogs® & News

Nearby

Air Quality

  Air Quality AQ Index Pollutant
Not available.

Snow Depth

Station Depth Elevation

Earthquake Activity

City Distance Mag. Time & Date
Minimum magnitude displayed is 2.5.

Coastal Water Temperatures

Place Temperature

Stations

Nearby Weather Stations

Station Location Temp. Windchill Dew Point Humidity Wind Precip. Elev Updated Type